sensor_id;sensor_type;location;lat;lon;timestamp;P1;durP1;ratioP1;P2;durP2;ratioP2
29938;SDS011;16799;50.844;5.304;2023-05-09T00:01:30;18.77;;;14.40;;
29938;SDS011;16799;50.844;5.304;2023-05-09T00:03:56;18.17;;;11.80;;
29938;SDS011;16799;50.844;5.304;2023-05-09T00:06:23;15.77;;;14.07;;
29938;SDS011;16799;50.844;5.304;2023-05-09T00:08:50;17.17;;;12.80;;
29938;SDS011;16799;50.844;5.304;2023-05-09T00:11:16;17.80;;;13.33;;
29938;SDS011;16799;50.844;5.304;2023-05-09T00:13:42;17.60;;;13.00;;
29938;SDS011;16799;50.844;5.304;2023-05-09T00:16:08;20.03;;;14.43;;
29938;SDS011;16799;50.844;5.304;2023-05-09T00:18:34;15.07;;;12.60;;
29938;SDS011;16799;50.844;5.304;2023-05-09T00:21:01;19.27;;;13.97;;
29938;SDS011;16799;50.844;5.304;2023-05-09T00:23:28;21.90;;;16.00;;
29938;SDS011;16799;50.844;5.304;2023-05-09T00:25:54;16.43;;;14.40;;
29938;SDS011;16799;50.844;5.304;2023-05-09T00:28:20;16.10;;;13.23;;
29938;SDS011;16799;50.844;5.304;2023-05-09T00:30:46;19.03;;;13.70;;
29938;SDS011;16799;50.844;5.304;2023-05-09T00:33:11;18.50;;;15.23;;
29938;SDS011;16799;50.844;5.304;2023-05-09T00:35:37;22.00;;;15.20;;
29938;SDS011;16799;50.844;5.304;2023-05-09T00:38:04;20.87;;;16.10;;
29938;SDS011;16799;50.844;5.304;2023-05-09T00:40:29;24.43;;;14.87;;
29938;SDS011;16799;50.844;5.304;2023-05-09T00:42:57;18.17;;;15.20;;
29938;SDS011;16799;50.844;5.304;2023-05-09T00:45:23;29.23;;;16.00;;
29938;SDS011;16799;50.844;5.304;2023-05-09T00:47:49;23.60;;;16.83;;
29938;SDS011;16799;50.844;5.304;2023-05-09T00:50:15;21.13;;;16.10;;
29938;SDS011;16799;50.844;5.304;2023-05-09T00:52:41;22.17;;;15.90;;
29938;SDS011;16799;50.844;5.304;2023-05-09T00:55:07;25.17;;;17.20;;
29938;SDS011;16799;50.844;5.304;2023-05-09T00:57:33;23.43;;;17.23;;
29938;SDS011;16799;50.844;5.304;2023-05-09T00:59:59;19.57;;;16.40;;
29938;SDS011;16799;50.844;5.304;2023-05-09T01:02:25;24.90;;;19.13;;
29938;SDS011;16799;50.844;5.304;2023-05-09T01:04:51;23.40;;;17.57;;
29938;SDS011;16799;50.844;5.304;2023-05-09T01:07:23;23.90;;;17.57;;
29938;SDS011;16799;50.844;5.304;2023-05-09T01:10:22;22.50;;;17.73;;
29938;SDS011;16799;50.844;5.304;2023-05-09T01:13:22;25.33;;;19.27;;
29938;SDS011;16799;50.844;5.304;2023-05-09T01:16:00;24.70;;;17.10;;
29938;SDS011;16799;50.844;5.304;2023-05-09T01:18:54;24.10;;;17.77;;
29938;SDS011;16799;50.844;5.304;2023-05-09T01:21:47;26.70;;;19.67;;
29938;SDS011;16799;50.844;5.304;2023-05-09T01:27:31;28.77;;;20.70;;
29938;SDS011;16799;50.844;5.304;2023-05-09T01:29:57;26.17;;;17.63;;
29938;SDS011;16799;50.844;5.304;2023-05-09T01:32:27;29.87;;;19.50;;
29938;SDS011;16799;50.844;5.304;2023-05-09T01:34:58;28.83;;;20.43;;
29938;SDS011;16799;50.844;5.304;2023-05-09T01:37:32;23.10;;;17.73;;
29938;SDS011;16799;50.844;5.304;2023-05-09T01:40:03;24.63;;;16.30;;
29938;SDS011;16799;50.844;5.304;2023-05-09T01:42:42;30.57;;;21.07;;
29938;SDS011;16799;50.844;5.304;2023-05-09T01:45:29;25.60;;;19.63;;
29938;SDS011;16799;50.844;5.304;2023-05-09T01:47:56;25.07;;;17.73;;
29938;SDS011;16799;50.844;5.304;2023-05-09T01:50:24;31.53;;;18.60;;
29938;SDS011;16799;50.844;5.304;2023-05-09T01:52:52;24.10;;;18.57;;
29938;SDS011;16799;50.844;5.304;2023-05-09T01:55:21;20.40;;;17.17;;
29938;SDS011;16799;50.844;5.304;2023-05-09T01:57:49;24.80;;;18.93;;
29938;SDS011;16799;50.844;5.304;2023-05-09T02:00:16;23.93;;;18.90;;
29938;SDS011;16799;50.844;5.304;2023-05-09T02:02:43;28.80;;;19.80;;
29938;SDS011;16799;50.844;5.304;2023-05-09T02:05:09;23.37;;;19.37;;
29938;SDS011;16799;50.844;5.304;2023-05-09T02:07:36;31.60;;;19.93;;
29938;SDS011;16799;50.844;5.304;2023-05-09T02:10:02;23.70;;;19.70;;
29938;SDS011;16799;50.844;5.304;2023-05-09T02:12:31;43.30;;;20.47;;
29938;SDS011;16799;50.844;5.304;2023-05-09T02:14:56;28.37;;;19.67;;
29938;SDS011;16799;50.844;5.304;2023-05-09T02:17:22;27.63;;;17.67;;
29938;SDS011;16799;50.844;5.304;2023-05-09T02:19:48;23.30;;;19.70;;
29938;SDS011;16799;50.844;5.304;2023-05-09T02:22:13;24.63;;;18.37;;
29938;SDS011;16799;50.844;5.304;2023-05-09T02:24:41;30.30;;;18.10;;
29938;SDS011;16799;50.844;5.304;2023-05-09T02:27:09;21.50;;;17.60;;
29938;SDS011;16799;50.844;5.304;2023-05-09T02:29:42;26.00;;;18.60;;
29938;SDS011;16799;50.844;5.304;2023-05-09T02:32:12;25.40;;;19.10;;
29938;SDS011;16799;50.844;5.304;2023-05-09T02:34:40;30.63;;;19.57;;
29938;SDS011;16799;50.844;5.304;2023-05-09T02:37:07;22.13;;;17.83;;
29938;SDS011;16799;50.844;5.304;2023-05-09T02:39:34;24.40;;;18.60;;
29938;SDS011;16799;50.844;5.304;2023-05-09T02:42:09;24.37;;;18.00;;
29938;SDS011;16799;50.844;5.304;2023-05-09T02:44:37;22.30;;;17.47;;
29938;SDS011;16799;50.844;5.304;2023-05-09T02:47:03;21.17;;;17.80;;
29938;SDS011;16799;50.844;5.304;2023-05-09T02:49:31;21.73;;;17.23;;
29938;SDS011;16799;50.844;5.304;2023-05-09T02:51:57;24.67;;;18.00;;
29938;SDS011;16799;50.844;5.304;2023-05-09T02:54:23;24.40;;;18.50;;
29938;SDS011;16799;50.844;5.304;2023-05-09T02:56:49;24.63;;;16.10;;
29938;SDS011;16799;50.844;5.304;2023-05-09T02:59:16;21.43;;;16.90;;
29938;SDS011;16799;50.844;5.304;2023-05-09T03:01:42;23.67;;;15.93;;
29938;SDS011;16799;50.844;5.304;2023-05-09T03:04:08;20.90;;;16.30;;
29938;SDS011;16799;50.844;5.304;2023-05-09T03:06:33;19.73;;;16.10;;
29938;SDS011;16799;50.844;5.304;2023-05-09T03:09:00;18.97;;;15.83;;
29938;SDS011;16799;50.844;5.304;2023-05-09T03:11:26;20.90;;;17.17;;
29938;SDS011;16799;50.844;5.304;2023-05-09T03:13:51;19.40;;;15.80;;
29938;SDS011;16799;50.844;5.304;2023-05-09T03:16:19;21.83;;;15.73;;
29938;SDS011;16799;50.844;5.304;2023-05-09T03:18:44;20.83;;;17.20;;
29938;SDS011;16799;50.844;5.304;2023-05-09T03:21:10;25.67;;;17.30;;
29938;SDS011;16799;50.844;5.304;2023-05-09T03:23:36;20.67;;;16.23;;
29938;SDS011;16799;50.844;5.304;2023-05-09T03:26:03;23.07;;;16.50;;
29938;SDS011;16799;50.844;5.304;2023-05-09T03:28:28;27.40;;;16.53;;
29938;SDS011;16799;50.844;5.304;2023-05-09T03:30:55;19.70;;;16.27;;
29938;SDS011;16799;50.844;5.304;2023-05-09T03:33:20;19.73;;;15.60;;
29938;SDS011;16799;50.844;5.304;2023-05-09T03:35:46;23.90;;;16.67;;
29938;SDS011;16799;50.844;5.304;2023-05-09T03:38:11;16.70;;;14.90;;
29938;SDS011;16799;50.844;5.304;2023-05-09T03:40:37;24.50;;;15.77;;
29938;SDS011;16799;50.844;5.304;2023-05-09T03:43:03;23.10;;;17.07;;
29938;SDS011;16799;50.844;5.304;2023-05-09T03:45:28;23.30;;;16.83;;
29938;SDS011;16799;50.844;5.304;2023-05-09T03:47:54;21.00;;;17.30;;
29938;SDS011;16799;50.844;5.304;2023-05-09T03:50:20;34.30;;;16.93;;
29938;SDS011;16799;50.844;5.304;2023-05-09T03:52:45;17.77;;;13.73;;
29938;SDS011;16799;50.844;5.304;2023-05-09T03:55:11;17.00;;;14.97;;
29938;SDS011;16799;50.844;5.304;2023-05-09T03:57:37;17.43;;;15.07;;
29938;SDS011;16799;50.844;5.304;2023-05-09T04:00:03;24.50;;;16.83;;
29938;SDS011;16799;50.844;5.304;2023-05-09T04:02:31;27.60;;;14.53;;
29938;SDS011;16799;50.844;5.304;2023-05-09T04:04:57;17.10;;;15.27;;
29938;SDS011;16799;50.844;5.304;2023-05-09T04:07:24;18.33;;;13.70;;
29938;SDS011;16799;50.844;5.304;2023-05-09T04:09:50;12.93;;;11.77;;
29938;SDS011;16799;50.844;5.304;2023-05-09T04:12:16;22.90;;;14.30;;
29938;SDS011;16799;50.844;5.304;2023-05-09T04:14:41;17.90;;;14.20;;
29938;SDS011;16799;50.844;5.304;2023-05-09T04:17:08;14.40;;;12.93;;
29938;SDS011;16799;50.844;5.304;2023-05-09T04:19:34;17.87;;;13.47;;
29938;SDS011;16799;50.844;5.304;2023-05-09T04:21:59;18.90;;;14.77;;
29938;SDS011;16799;50.844;5.304;2023-05-09T04:24:25;18.00;;;13.60;;
29938;SDS011;16799;50.844;5.304;2023-05-09T04:26:50;15.33;;;13.83;;
29938;SDS011;16799;50.844;5.304;2023-05-09T04:29:16;15.40;;;13.53;;
29938;SDS011;16799;50.844;5.304;2023-05-09T04:31:42;19.03;;;13.40;;
29938;SDS011;16799;50.844;5.304;2023-05-09T04:34:07;20.30;;;14.43;;
29938;SDS011;16799;50.844;5.304;2023-05-09T04:36:33;16.20;;;13.93;;
29938;SDS011;16799;50.844;5.304;2023-05-09T04:38:59;27.73;;;13.70;;
29938;SDS011;16799;50.844;5.304;2023-05-09T04:41:25;18.17;;;12.10;;
29938;SDS011;16799;50.844;5.304;2023-05-09T04:43:51;13.00;;;11.73;;
29938;SDS011;16799;50.844;5.304;2023-05-09T04:46:17;15.30;;;12.43;;
29938;SDS011;16799;50.844;5.304;2023-05-09T04:48:42;18.43;;;11.97;;
29938;SDS011;16799;50.844;5.304;2023-05-09T04:51:08;12.13;;;11.00;;
29938;SDS011;16799;50.844;5.304;2023-05-09T04:53:34;18.53;;;12.77;;
29938;SDS011;16799;50.844;5.304;2023-05-09T04:55:59;15.40;;;12.90;;
29938;SDS011;16799;50.844;5.304;2023-05-09T04:58:25;12.13;;;10.80;;
29938;SDS011;16799;50.844;5.304;2023-05-09T05:00:51;15.80;;;11.63;;
29938;SDS011;16799;50.844;5.304;2023-05-09T05:03:17;12.57;;;11.10;;
29938;SDS011;16799;50.844;5.304;2023-05-09T05:05:43;15.83;;;11.87;;
29938;SDS011;16799;50.844;5.304;2023-05-09T05:08:08;13.23;;;10.00;;
29938;SDS011;16799;50.844;5.304;2023-05-09T05:10:34;14.10;;;10.97;;
29938;SDS011;16799;50.844;5.304;2023-05-09T05:13:00;10.13;;;9.27;;
29938;SDS011;16799;50.844;5.304;2023-05-09T05:15:26;12.13;;;11.00;;
29938;SDS011;16799;50.844;5.304;2023-05-09T05:17:51;12.60;;;11.30;;
29938;SDS011;16799;50.844;5.304;2023-05-09T05:20:17;17.53;;;10.87;;
29938;SDS011;16799;50.844;5.304;2023-05-09T05:22:43;12.57;;;11.13;;
29938;SDS011;16799;50.844;5.304;2023-05-09T05:25:08;16.93;;;12.33;;
29938;SDS011;16799;50.844;5.304;2023-05-09T05:27:34;20.37;;;11.60;;
29938;SDS011;16799;50.844;5.304;2023-05-09T05:30:00;18.90;;;12.80;;
29938;SDS011;16799;50.844;5.304;2023-05-09T05:32:26;14.37;;;11.20;;
29938;SDS011;16799;50.844;5.304;2023-05-09T05:34:51;14.37;;;12.43;;
29938;SDS011;16799;50.844;5.304;2023-05-09T05:37:17;14.33;;;9.60;;
29938;SDS011;16799;50.844;5.304;2023-05-09T05:39:43;16.67;;;11.57;;
29938;SDS011;16799;50.844;5.304;2023-05-09T05:42:08;12.00;;;10.70;;
29938;SDS011;16799;50.844;5.304;2023-05-09T05:44:34;12.73;;;10.57;;
29938;SDS011;16799;50.844;5.304;2023-05-09T05:47:00;9.87;;;8.87;;
29938;SDS011;16799;50.844;5.304;2023-05-09T05:49:25;11.50;;;10.37;;
29938;SDS011;16799;50.844;5.304;2023-05-09T05:51:51;12.03;;;10.80;;
29938;SDS011;16799;50.844;5.304;2023-05-09T05:54:16;17.70;;;10.87;;
29938;SDS011;16799;50.844;5.304;2023-05-09T05:56:42;9.83;;;8.87;;
29938;SDS011;16799;50.844;5.304;2023-05-09T05:59:08;10.70;;;9.60;;
29938;SDS011;16799;50.844;5.304;2023-05-09T06:01:33;10.83;;;9.47;;
29938;SDS011;16799;50.844;5.304;2023-05-09T06:03:59;11.53;;;9.57;;
29938;SDS011;16799;50.844;5.304;2023-05-09T06:06:25;11.10;;;9.17;;
29938;SDS011;16799;50.844;5.304;2023-05-09T06:08:51;10.90;;;9.07;;
29938;SDS011;16799;50.844;5.304;2023-05-09T06:11:16;10.27;;;9.43;;
29938;SDS011;16799;50.844;5.304;2023-05-09T06:13:43;10.23;;;9.20;;
29938;SDS011;16799;50.844;5.304;2023-05-09T06:16:09;10.73;;;9.40;;
29938;SDS011;16799;50.844;5.304;2023-05-09T06:18:35;10.83;;;8.80;;
29938;SDS011;16799;50.844;5.304;2023-05-09T06:21:05;11.53;;;9.20;;
29938;SDS011;16799;50.844;5.304;2023-05-09T06:23:31;11.70;;;9.50;;
29938;SDS011;16799;50.844;5.304;2023-05-09T06:25:57;8.90;;;8.00;;
29938;SDS011;16799;50.844;5.304;2023-05-09T06:28:23;10.50;;;9.40;;
29938;SDS011;16799;50.844;5.304;2023-05-09T06:30:49;14.67;;;8.40;;
29938;SDS011;16799;50.844;5.304;2023-05-09T06:33:14;10.37;;;9.17;;
29938;SDS011;16799;50.844;5.304;2023-05-09T06:35:40;10.30;;;9.13;;
29938;SDS011;16799;50.844;5.304;2023-05-09T06:38:06;12.10;;;8.87;;
29938;SDS011;16799;50.844;5.304;2023-05-09T06:40:32;11.03;;;9.03;;
29938;SDS011;16799;50.844;5.304;2023-05-09T06:42:57;11.20;;;8.90;;
29938;SDS011;16799;50.844;5.304;2023-05-09T06:45:23;14.40;;;8.83;;
29938;SDS011;16799;50.844;5.304;2023-05-09T06:47:49;10.77;;;8.57;;
29938;SDS011;16799;50.844;5.304;2023-05-09T06:50:15;10.43;;;9.20;;
29938;SDS011;16799;50.844;5.304;2023-05-09T06:52:41;9.53;;;8.47;;
29938;SDS011;16799;50.844;5.304;2023-05-09T06:55:06;10.73;;;7.27;;
29938;SDS011;16799;50.844;5.304;2023-05-09T06:57:33;11.07;;;9.37;;
29938;SDS011;16799;50.844;5.304;2023-05-09T06:59:58;10.03;;;9.00;;
29938;SDS011;16799;50.844;5.304;2023-05-09T07:02:24;9.00;;;8.17;;
29938;SDS011;16799;50.844;5.304;2023-05-09T07:04:50;9.07;;;8.30;;
29938;SDS011;16799;50.844;5.304;2023-05-09T07:07:15;8.37;;;7.77;;
29938;SDS011;16799;50.844;5.304;2023-05-09T07:09:41;10.30;;;8.90;;
29938;SDS011;16799;50.844;5.304;2023-05-09T07:12:07;10.80;;;9.70;;
29938;SDS011;16799;50.844;5.304;2023-05-09T07:14:32;9.67;;;8.70;;
29938;SDS011;16799;50.844;5.304;2023-05-09T07:16:58;15.53;;;10.40;;
29938;SDS011;16799;50.844;5.304;2023-05-09T07:19:24;10.53;;;9.50;;
29938;SDS011;16799;50.844;5.304;2023-05-09T07:21:50;18.20;;;9.90;;
29938;SDS011;16799;50.844;5.304;2023-05-09T07:24:16;11.27;;;10.27;;
29938;SDS011;16799;50.844;5.304;2023-05-09T07:26:41;8.53;;;7.83;;
29938;SDS011;16799;50.844;5.304;2023-05-09T07:29:07;10.67;;;9.67;;
29938;SDS011;16799;50.844;5.304;2023-05-09T07:31:33;11.10;;;10.00;;
29938;SDS011;16799;50.844;5.304;2023-05-09T07:33:58;13.17;;;8.53;;
29938;SDS011;16799;50.844;5.304;2023-05-09T07:36:24;11.33;;;10.10;;
29938;SDS011;16799;50.844;5.304;2023-05-09T07:38:50;11.07;;;10.10;;
29938;SDS011;16799;50.844;5.304;2023-05-09T07:41:16;13.73;;;9.00;;
29938;SDS011;16799;50.844;5.304;2023-05-09T07:43:42;10.33;;;9.43;;
29938;SDS011;16799;50.844;5.304;2023-05-09T07:46:08;11.77;;;10.57;;
29938;SDS011;16799;50.844;5.304;2023-05-09T07:48:34;15.20;;;11.50;;
29938;SDS011;16799;50.844;5.304;2023-05-09T07:50:59;13.70;;;12.30;;
29938;SDS011;16799;50.844;5.304;2023-05-09T07:53:25;11.97;;;11.00;;
29938;SDS011;16799;50.844;5.304;2023-05-09T07:55:51;13.20;;;12.00;;
29938;SDS011;16799;50.844;5.304;2023-05-09T07:58:16;13.10;;;11.10;;
29938;SDS011;16799;50.844;5.304;2023-05-09T08:00:42;11.57;;;10.53;;
29938;SDS011;16799;50.844;5.304;2023-05-09T08:03:08;13.50;;;12.07;;
29938;SDS011;16799;50.844;5.304;2023-05-09T08:05:33;17.43;;;12.00;;
29938;SDS011;16799;50.844;5.304;2023-05-09T08:07:59;14.00;;;12.67;;
29938;SDS011;16799;50.844;5.304;2023-05-09T08:10:25;12.13;;;11.07;;
29938;SDS011;16799;50.844;5.304;2023-05-09T08:12:54;13.17;;;11.93;;
29938;SDS011;16799;50.844;5.304;2023-05-09T08:15:20;13.53;;;12.17;;
29938;SDS011;16799;50.844;5.304;2023-05-09T08:17:46;13.33;;;12.13;;
29938;SDS011;16799;50.844;5.304;2023-05-09T08:20:11;14.77;;;13.13;;
29938;SDS011;16799;50.844;5.304;2023-05-09T08:22:38;18.03;;;10.90;;
29938;SDS011;16799;50.844;5.304;2023-05-09T08:25:04;14.17;;;12.20;;
29938;SDS011;16799;50.844;5.304;2023-05-09T08:27:31;14.73;;;12.03;;
29938;SDS011;16799;50.844;5.304;2023-05-09T08:29:56;17.40;;;13.70;;
29938;SDS011;16799;50.844;5.304;2023-05-09T08:32:22;13.63;;;12.33;;
29938;SDS011;16799;50.844;5.304;2023-05-09T08:34:48;15.13;;;12.30;;
29938;SDS011;16799;50.844;5.304;2023-05-09T08:37:13;15.00;;;13.57;;
29938;SDS011;16799;50.844;5.304;2023-05-09T08:39:39;14.60;;;11.67;;
29938;SDS011;16799;50.844;5.304;2023-05-09T08:42:05;15.23;;;13.80;;
29938;SDS011;16799;50.844;5.304;2023-05-09T08:44:32;17.00;;;15.30;;
29938;SDS011;16799;50.844;5.304;2023-05-09T08:46:58;16.40;;;14.73;;
29938;SDS011;16799;50.844;5.304;2023-05-09T08:49:25;17.87;;;14.10;;
29938;SDS011;16799;50.844;5.304;2023-05-09T08:51:52;12.00;;;10.90;;
29938;SDS011;16799;50.844;5.304;2023-05-09T08:54:18;10.60;;;9.70;;
29938;SDS011;16799;50.844;5.304;2023-05-09T08:56:46;11.43;;;9.67;;
29938;SDS011;16799;50.844;5.304;2023-05-09T08:59:12;15.97;;;10.90;;
29938;SDS011;16799;50.844;5.304;2023-05-09T09:01:38;9.47;;;8.53;;
29938;SDS011;16799;50.844;5.304;2023-05-09T09:04:05;12.23;;;9.40;;
29938;SDS011;16799;50.844;5.304;2023-05-09T09:06:35;9.67;;;8.70;;
29938;SDS011;16799;50.844;5.304;2023-05-09T09:09:02;9.50;;;8.67;;
29938;SDS011;16799;50.844;5.304;2023-05-09T09:11:33;9.67;;;7.83;;
29938;SDS011;16799;50.844;5.304;2023-05-09T09:14:00;7.40;;;6.83;;
29938;SDS011;16799;50.844;5.304;2023-05-09T09:16:34;8.57;;;7.93;;
29938;SDS011;16799;50.844;5.304;2023-05-09T09:19:01;10.17;;;9.10;;
29938;SDS011;16799;50.844;5.304;2023-05-09T09:21:28;8.80;;;8.10;;
29938;SDS011;16799;50.844;5.304;2023-05-09T09:23:56;9.97;;;8.97;;
29938;SDS011;16799;50.844;5.304;2023-05-09T09:26:22;9.43;;;8.47;;
29938;SDS011;16799;50.844;5.304;2023-05-09T09:28:48;7.33;;;6.83;;
29938;SDS011;16799;50.844;5.304;2023-05-09T09:31:21;6.47;;;5.93;;
29938;SDS011;16799;50.844;5.304;2023-05-09T09:33:51;5.27;;;4.77;;
29938;SDS011;16799;50.844;5.304;2023-05-09T09:36:28;6.50;;;4.73;;
29938;SDS011;16799;50.844;5.304;2023-05-09T09:38:58;4.20;;;3.80;;
29938;SDS011;16799;50.844;5.304;2023-05-09T09:41:31;5.10;;;4.60;;
29938;SDS011;16799;50.844;5.304;2023-05-09T09:44:06;3.53;;;3.10;;
29938;SDS011;16799;50.844;5.304;2023-05-09T09:46:46;5.70;;;3.57;;
29938;SDS011;16799;50.844;5.304;2023-05-09T09:49:16;4.87;;;4.37;;
29938;SDS011;16799;50.844;5.304;2023-05-09T09:51:43;5.63;;;4.57;;
29938;SDS011;16799;50.844;5.304;2023-05-09T09:54:13;5.00;;;3.23;;
29938;SDS011;16799;50.844;5.304;2023-05-09T09:56:46;4.50;;;4.10;;
29938;SDS011;16799;50.844;5.304;2023-05-09T09:59:13;5.47;;;3.27;;
29938;SDS011;16799;50.844;5.304;2023-05-09T10:04:35;7.07;;;4.00;;
29938;SDS011;16799;50.844;5.304;2023-05-09T10:07:02;3.60;;;3.40;;
29938;SDS011;16799;50.844;5.304;2023-05-09T10:09:30;4.77;;;4.33;;
29938;SDS011;16799;50.844;5.304;2023-05-09T10:11:58;3.63;;;3.10;;
29938;SDS011;16799;50.844;5.304;2023-05-09T10:14:27;3.90;;;3.60;;
29938;SDS011;16799;50.844;5.304;2023-05-09T10:16:55;4.20;;;3.93;;
29938;SDS011;16799;50.844;5.304;2023-05-09T10:19:21;5.27;;;4.77;;
29938;SDS011;16799;50.844;5.304;2023-05-09T10:21:53;4.60;;;4.20;;
29938;SDS011;16799;50.844;5.304;2023-05-09T10:24:26;4.57;;;4.27;;
29938;SDS011;16799;50.844;5.304;2023-05-09T10:27:01;6.70;;;5.13;;
29938;SDS011;16799;50.844;5.304;2023-05-09T10:29:28;4.80;;;4.40;;
29938;SDS011;16799;50.844;5.304;2023-05-09T10:31:59;5.47;;;4.97;;
29938;SDS011;16799;50.844;5.304;2023-05-09T10:34:33;6.60;;;5.50;;
29938;SDS011;16799;50.844;5.304;2023-05-09T10:37:01;7.30;;;4.63;;
29938;SDS011;16799;50.844;5.304;2023-05-09T10:39:27;5.93;;;4.70;;
29938;SDS011;16799;50.844;5.304;2023-05-09T10:41:55;4.53;;;4.00;;
29938;SDS011;16799;50.844;5.304;2023-05-09T10:44:23;6.03;;;4.30;;
29938;SDS011;16799;50.844;5.304;2023-05-09T10:46:49;5.70;;;5.30;;
29938;SDS011;16799;50.844;5.304;2023-05-09T10:49:16;5.17;;;4.87;;
29938;SDS011;16799;50.844;5.304;2023-05-09T10:51:42;4.60;;;4.17;;
29938;SDS011;16799;50.844;5.304;2023-05-09T10:54:14;4.53;;;4.17;;
29938;SDS011;16799;50.844;5.304;2023-05-09T10:56:49;5.10;;;4.70;;
29938;SDS011;16799;50.844;5.304;2023-05-09T10:59:31;5.87;;;4.97;;
29938;SDS011;16799;50.844;5.304;2023-05-09T11:01:58;5.40;;;5.00;;
29938;SDS011;16799;50.844;5.304;2023-05-09T11:04:30;5.30;;;5.00;;
29938;SDS011;16799;50.844;5.304;2023-05-09T11:06:57;4.77;;;4.47;;
29938;SDS011;16799;50.844;5.304;2023-05-09T11:11:52;6.83;;;4.00;;
29938;SDS011;16799;50.844;5.304;2023-05-09T11:17:13;4.93;;;4.53;;
29938;SDS011;16799;50.844;5.304;2023-05-09T11:22:11;5.30;;;4.90;;
29938;SDS011;16799;50.844;5.304;2023-05-09T11:24:44;7.07;;;5.57;;
29938;SDS011;16799;50.844;5.304;2023-05-09T11:27:18;7.73;;;5.20;;
29938;SDS011;16799;50.844;5.304;2023-05-09T11:29:45;5.73;;;5.20;;
29938;SDS011;16799;50.844;5.304;2023-05-09T11:32:15;7.37;;;5.87;;
29938;SDS011;16799;50.844;5.304;2023-05-09T11:34:44;5.87;;;5.47;;
29938;SDS011;16799;50.844;5.304;2023-05-09T11:37:11;6.80;;;5.83;;
29938;SDS011;16799;50.844;5.304;2023-05-09T11:39:54;8.27;;;5.70;;
29938;SDS011;16799;50.844;5.304;2023-05-09T11:42:22;10.40;;;6.60;;
29938;SDS011;16799;50.844;5.304;2023-05-09T11:44:52;7.60;;;6.33;;
29938;SDS011;16799;50.844;5.304;2023-05-09T11:47:18;6.70;;;6.20;;
29938;SDS011;16799;50.844;5.304;2023-05-09T11:49:45;7.50;;;7.00;;
29938;SDS011;16799;50.844;5.304;2023-05-09T11:52:11;6.83;;;6.27;;
29938;SDS011;16799;50.844;5.304;2023-05-09T11:54:37;6.33;;;5.93;;
29938;SDS011;16799;50.844;5.304;2023-05-09T11:57:03;6.17;;;5.47;;
29938;SDS011;16799;50.844;5.304;2023-05-09T11:59:30;8.50;;;5.50;;
29938;SDS011;16799;50.844;5.304;2023-05-09T12:02:01;6.90;;;4.60;;
29938;SDS011;16799;50.844;5.304;2023-05-09T12:04:30;5.77;;;4.57;;
29938;SDS011;16799;50.844;5.304;2023-05-09T12:06:57;4.77;;;4.37;;
29938;SDS011;16799;50.844;5.304;2023-05-09T12:09:24;5.93;;;5.33;;
29938;SDS011;16799;50.844;5.304;2023-05-09T12:12:01;3.43;;;3.20;;
29938;SDS011;16799;50.844;5.304;2023-05-09T12:14:36;3.83;;;3.60;;
29938;SDS011;16799;50.844;5.304;2023-05-09T12:17:03;4.00;;;3.80;;
29938;SDS011;16799;50.844;5.304;2023-05-09T12:19:30;5.27;;;4.83;;
29938;SDS011;16799;50.844;5.304;2023-05-09T12:21:56;6.30;;;5.23;;
29938;SDS011;16799;50.844;5.304;2023-05-09T12:24:23;5.13;;;4.73;;
29938;SDS011;16799;50.844;5.304;2023-05-09T12:26:51;6.60;;;4.97;;
29938;SDS011;16799;50.844;5.304;2023-05-09T12:29:17;5.50;;;5.20;;
29938;SDS011;16799;50.844;5.304;2023-05-09T12:31:44;5.47;;;5.07;;
29938;SDS011;16799;50.844;5.304;2023-05-09T12:34:10;7.60;;;4.40;;
29938;SDS011;16799;50.844;5.304;2023-05-09T12:36:36;5.57;;;5.17;;
29938;SDS011;16799;50.844;5.304;2023-05-09T12:39:08;4.93;;;4.63;;
29938;SDS011;16799;50.844;5.304;2023-05-09T12:41:41;13.10;;;4.63;;
29938;SDS011;16799;50.844;5.304;2023-05-09T12:44:07;6.33;;;4.30;;
29938;SDS011;16799;50.844;5.304;2023-05-09T12:46:33;6.30;;;4.53;;
29938;SDS011;16799;50.844;5.304;2023-05-09T12:48:59;6.60;;;6.00;;
29938;SDS011;16799;50.844;5.304;2023-05-09T12:51:25;8.50;;;5.63;;
29938;SDS011;16799;50.844;5.304;2023-05-09T12:53:50;4.80;;;4.50;;
29938;SDS011;16799;50.844;5.304;2023-05-09T12:56:19;5.63;;;5.13;;
29938;SDS011;16799;50.844;5.304;2023-05-09T12:58:48;5.77;;;4.70;;
29938;SDS011;16799;50.844;5.304;2023-05-09T13:01:28;6.83;;;6.40;;
29938;SDS011;16799;50.844;5.304;2023-05-09T13:04:03;6.73;;;5.47;;
29938;SDS011;16799;50.844;5.304;2023-05-09T13:06:31;4.67;;;4.37;;
29938;SDS011;16799;50.844;5.304;2023-05-09T13:09:01;4.90;;;4.60;;
29938;SDS011;16799;50.844;5.304;2023-05-09T13:11:29;5.47;;;5.17;;
29938;SDS011;16799;50.844;5.304;2023-05-09T13:13:56;7.40;;;5.30;;
29938;SDS011;16799;50.844;5.304;2023-05-09T13:16:22;4.30;;;3.83;;
29938;SDS011;16799;50.844;5.304;2023-05-09T13:18:48;7.33;;;5.30;;
29938;SDS011;16799;50.844;5.304;2023-05-09T13:21:13;5.03;;;4.67;;
29938;SDS011;16799;50.844;5.304;2023-05-09T13:23:39;4.80;;;4.47;;
29938;SDS011;16799;50.844;5.304;2023-05-09T13:26:06;4.17;;;3.97;;
29938;SDS011;16799;50.844;5.304;2023-05-09T13:28:31;5.10;;;4.70;;
29938;SDS011;16799;50.844;5.304;2023-05-09T13:30:57;4.00;;;3.80;;
29938;SDS011;16799;50.844;5.304;2023-05-09T13:33:24;7.20;;;4.97;;
29938;SDS011;16799;50.844;5.304;2023-05-09T13:35:49;5.70;;;4.60;;
29938;SDS011;16799;50.844;5.304;2023-05-09T13:38:15;5.00;;;4.70;;
29938;SDS011;16799;50.844;5.304;2023-05-09T13:40:41;4.50;;;4.10;;
29938;SDS011;16799;50.844;5.304;2023-05-09T13:43:06;3.67;;;3.17;;
29938;SDS011;16799;50.844;5.304;2023-05-09T13:45:32;3.60;;;3.40;;
29938;SDS011;16799;50.844;5.304;2023-05-09T13:47:58;4.00;;;3.80;;
29938;SDS011;16799;50.844;5.304;2023-05-09T13:50:23;7.87;;;4.00;;
29938;SDS011;16799;50.844;5.304;2023-05-09T13:52:49;4.73;;;4.20;;
29938;SDS011;16799;50.844;5.304;2023-05-09T13:55:14;4.23;;;3.70;;
29938;SDS011;16799;50.844;5.304;2023-05-09T13:57:41;5.90;;;4.67;;
29938;SDS011;16799;50.844;5.304;2023-05-09T14:00:07;4.07;;;3.80;;
29938;SDS011;16799;50.844;5.304;2023-05-09T14:02:33;5.03;;;3.17;;
29938;SDS011;16799;50.844;5.304;2023-05-09T14:04:59;5.93;;;4.93;;
29938;SDS011;16799;50.844;5.304;2023-05-09T14:07:26;4.30;;;4.00;;
29938;SDS011;16799;50.844;5.304;2023-05-09T14:09:52;3.70;;;3.50;;
29938;SDS011;16799;50.844;5.304;2023-05-09T14:12:18;3.37;;;3.17;;
29938;SDS011;16799;50.844;5.304;2023-05-09T14:14:43;4.53;;;4.00;;
29938;SDS011;16799;50.844;5.304;2023-05-09T14:17:10;5.90;;;4.40;;
29938;SDS011;16799;50.844;5.304;2023-05-09T14:19:36;3.93;;;3.63;;
29938;SDS011;16799;50.844;5.304;2023-05-09T14:22:02;3.10;;;2.90;;
29938;SDS011;16799;50.844;5.304;2023-05-09T14:24:28;3.90;;;3.70;;
29938;SDS011;16799;50.844;5.304;2023-05-09T14:26:55;2.23;;;2.13;;
29938;SDS011;16799;50.844;5.304;2023-05-09T14:29:21;3.20;;;3.00;;
29938;SDS011;16799;50.844;5.304;2023-05-09T14:31:47;4.90;;;3.17;;
29938;SDS011;16799;50.844;5.304;2023-05-09T14:34:12;2.80;;;2.60;;
29938;SDS011;16799;50.844;5.304;2023-05-09T14:36:38;2.83;;;2.63;;
29938;SDS011;16799;50.844;5.304;2023-05-09T14:39:03;2.37;;;2.27;;
29938;SDS011;16799;50.844;5.304;2023-05-09T14:41:30;2.40;;;2.20;;
29938;SDS011;16799;50.844;5.304;2023-05-09T14:43:55;1.50;;;1.40;;
29938;SDS011;16799;50.844;5.304;2023-05-09T14:46:21;2.13;;;1.93;;
29938;SDS011;16799;50.844;5.304;2023-05-09T14:48:48;2.10;;;2.00;;